createdAt,value
2022-10-04T00:00:41.181Z,0.00
2022-10-04T00:01:41.507Z,0.00
2022-10-04T00:02:41.317Z,0.00
2022-10-04T00:03:41.251Z,0.00
2022-10-04T00:04:41.283Z,0.00
2022-10-04T00:05:41.612Z,0.00
2022-10-04T00:06:41.340Z,0.00
2022-10-04T00:07:41.378Z,0.00
2022-10-04T00:08:41.399Z,0.00
2022-10-04T00:10:41.463Z,0.00
2022-10-04T00:11:41.760Z,0.00
2022-10-04T00:12:41.821Z,0.00
2022-10-04T00:13:41.557Z,0.00
2022-10-04T00:14:41.588Z,0.00
2022-10-04T00:15:41.611Z,0.00
2022-10-04T00:16:41.750Z,0.00
2022-10-04T00:17:41.699Z,0.00
2022-10-04T00:18:41.706Z,0.00
2022-10-04T00:19:42.035Z,0.00
2022-10-04T00:20:41.763Z,0.00
2022-10-04T00:21:42.027Z,0.00
2022-10-04T00:22:41.833Z,0.00
2022-10-04T00:23:41.851Z,0.00
2022-10-04T00:24:41.891Z,0.00
2022-10-04T00:25:41.916Z,0.00
2022-10-04T00:26:42.245Z,0.00
2022-10-04T00:27:41.970Z,0.00
2022-10-04T00:28:42.005Z,0.00
2022-10-04T00:29:42.033Z,0.00
2022-10-04T00:30:42.069Z,0.00
2022-10-04T00:31:42.395Z,0.00
2022-10-04T00:32:42.149Z,0.00
2022-10-04T00:33:42.453Z,0.00
2022-10-04T00:34:42.187Z,0.00
2022-10-04T00:35:42.210Z,0.00
2022-10-04T00:36:42.246Z,0.00
2022-10-04T00:37:42.293Z,0.00
2022-10-04T00:38:42.305Z,0.00
2022-10-04T00:39:42.335Z,0.00
2022-10-04T00:40:42.665Z,0.00
2022-10-04T00:41:42.585Z,0.00
2022-10-04T00:42:42.430Z,0.00
2022-10-04T00:43:42.460Z,0.00
2022-10-04T00:44:42.485Z,0.00
2022-10-04T00:45:42.517Z,0.00
2022-10-04T00:46:42.546Z,0.00
2022-10-04T00:47:42.882Z,0.00
2022-10-04T00:48:42.622Z,0.00
2022-10-04T00:49:42.635Z,0.00
2022-10-04T00:50:42.664Z,0.00
2022-10-04T00:51:43.021Z,0.00
2022-10-04T00:52:42.727Z,0.00
2022-10-04T00:53:43.054Z,0.00
2022-10-04T00:55:42.816Z,0.00
2022-10-04T00:56:42.844Z,0.00
2022-10-04T00:57:42.875Z,0.00
2022-10-04T00:58:42.915Z,0.00
2022-10-04T00:59:43.235Z,0.00
2022-10-04T01:00:43.034Z,0.00
2022-10-04T01:01:43.271Z,0.00
2022-10-04T01:02:43.025Z,0.00
2022-10-04T01:03:43.054Z,0.00
2022-10-04T01:04:43.107Z,0.00
2022-10-04T01:05:43.451Z,0.00
2022-10-04T01:06:43.146Z,0.00
2022-10-04T01:07:43.182Z,0.00
2022-10-04T01:08:43.203Z,0.00
2022-10-04T01:09:43.238Z,0.00
2022-10-04T01:10:43.265Z,0.00
2022-10-04T01:11:43.586Z,0.00
2022-10-04T01:12:43.627Z,0.00
2022-10-04T01:13:43.359Z,0.00
2022-10-04T01:14:43.387Z,0.00
2022-10-04T01:15:43.499Z,0.00
2022-10-04T01:16:43.445Z,0.00
2022-10-04T01:17:43.482Z,0.00
2022-10-04T01:18:43.504Z,0.00
2022-10-04T01:19:43.838Z,0.00
2022-10-04T01:20:43.590Z,0.00
2022-10-04T01:21:43.758Z,0.00
2022-10-04T01:22:43.625Z,0.00
2022-10-04T01:23:43.657Z,0.00
2022-10-04T01:24:43.689Z,0.00
2022-10-04T01:25:43.718Z,0.00
2022-10-04T01:26:44.049Z,0.00
2022-10-04T01:27:43.781Z,0.00
2022-10-04T01:28:43.806Z,0.00
2022-10-04T01:29:43.837Z,0.00
2022-10-04T01:30:43.866Z,0.00
2022-10-04T01:31:44.212Z,0.00
2022-10-04T01:32:45.405Z,0.00
2022-10-04T01:34:44.291Z,0.00
2022-10-04T01:35:44.018Z,0.00
2022-10-04T01:36:44.066Z,0.00
2022-10-04T01:37:44.076Z,0.00
2022-10-04T01:38:44.106Z,0.00
2022-10-04T01:39:44.140Z,0.00
2022-10-04T01:40:44.166Z,0.00
2022-10-04T01:41:44.502Z,0.00
2022-10-04T01:42:44.278Z,0.00
2022-10-04T01:43:44.262Z,0.00
2022-10-04T01:44:44.288Z,0.00
2022-10-04T01:45:44.321Z,0.00
2022-10-04T01:46:44.410Z,0.00
2022-10-04T01:47:44.381Z,0.00
2022-10-04T01:49:44.746Z,0.00
2022-10-04T01:50:44.470Z,0.00
2022-10-04T01:51:44.499Z,0.00
2022-10-04T01:52:44.546Z,0.00
2022-10-04T01:53:44.566Z,0.00
2022-10-04T01:54:44.588Z,0.00
2022-10-04T01:55:44.920Z,0.00
2022-10-04T01:56:44.646Z,0.00
2022-10-04T01:57:44.689Z,0.00
2022-10-04T01:58:44.718Z,0.00
2022-10-04T01:59:44.734Z,0.00
2022-10-04T02:00:44.804Z,0.00
2022-10-04T02:01:45.109Z,0.00
2022-10-04T02:02:45.129Z,0.00
2022-10-04T02:03:44.981Z,0.00
2022-10-04T02:04:44.951Z,0.00
2022-10-04T02:05:44.932Z,0.00
2022-10-04T02:06:44.949Z,0.00
2022-10-04T02:07:44.976Z,0.00
2022-10-04T02:08:45.029Z,0.00
2022-10-04T02:09:45.339Z,0.00
2022-10-04T02:10:45.078Z,0.00
2022-10-04T02:11:45.108Z,0.00
2022-10-04T02:12:45.143Z,0.00
2022-10-04T02:13:45.162Z,0.00
2022-10-04T02:14:45.189Z,0.00
2022-10-04T02:15:45.322Z,0.00
2022-10-04T02:16:45.560Z,0.00
2022-10-04T02:17:45.280Z,0.00
2022-10-04T02:18:45.308Z,0.00
2022-10-04T02:19:45.354Z,0.00
2022-10-04T02:20:45.369Z,0.00
2022-10-04T02:21:45.398Z,0.00
2022-10-04T02:22:45.429Z,0.00
2022-10-04T02:23:45.780Z,0.00
2022-10-04T02:24:45.510Z,0.00
2022-10-04T02:25:45.536Z,0.00
2022-10-04T02:26:45.553Z,0.00
2022-10-04T02:27:45.580Z,0.00
2022-10-04T02:28:45.610Z,0.00
2022-10-04T02:29:45.635Z,0.00
2022-10-04T02:30:45.968Z,0.00
2022-10-04T02:33:45.756Z,0.00
2022-10-04T02:34:45.795Z,0.00
2022-10-04T02:35:45.868Z,0.00
2022-10-04T02:36:45.849Z,0.00
2022-10-04T02:37:46.174Z,0.00
2022-10-04T02:38:45.914Z,0.00
2022-10-04T02:39:46.159Z,0.00
2022-10-04T02:40:45.992Z,0.00
2022-10-04T02:41:45.998Z,0.00
2022-10-04T02:42:46.024Z,0.00
2022-10-04T02:43:46.056Z,0.00
2022-10-04T02:44:46.394Z,0.00
2022-10-04T02:45:46.119Z,0.00
2022-10-04T02:46:46.211Z,0.00
2022-10-04T02:47:46.172Z,0.00
2022-10-04T02:48:46.207Z,0.00
2022-10-04T02:49:46.237Z,0.00
2022-10-04T02:50:46.268Z,0.00
2022-10-04T02:52:46.630Z,0.00
2022-10-04T02:53:46.355Z,0.00
2022-10-04T02:54:46.389Z,0.00
2022-10-04T02:55:46.418Z,0.00
2022-10-04T02:56:46.464Z,0.00
2022-10-04T02:57:46.478Z,0.00
2022-10-04T02:59:46.836Z,0.00
2022-10-04T03:00:46.690Z,0.00
2022-10-04T03:01:46.743Z,0.00
2022-10-04T03:02:46.694Z,0.00
2022-10-04T03:03:46.651Z,0.00
2022-10-04T03:04:46.686Z,0.00
2022-10-04T03:05:46.713Z,0.00
2022-10-04T03:06:47.045Z,0.00
2022-10-04T03:07:46.777Z,0.00
2022-10-04T03:08:46.803Z,0.00
2022-10-04T03:09:46.831Z,0.00
2022-10-04T03:10:46.869Z,0.00
2022-10-04T03:11:46.891Z,0.00
2022-10-04T03:12:46.947Z,0.00
2022-10-04T03:13:47.254Z,0.00
2022-10-04T03:14:46.984Z,0.00
2022-10-04T03:15:47.057Z,0.00
2022-10-04T03:16:47.045Z,0.00
2022-10-04T03:17:47.071Z,0.00
2022-10-04T03:18:47.113Z,0.00
2022-10-04T03:19:47.132Z,0.00
2022-10-04T03:20:47.466Z,0.00
2022-10-04T03:21:47.190Z,0.00
2022-10-04T03:22:47.418Z,0.00
2022-10-04T03:23:47.253Z,0.00
2022-10-04T03:24:47.283Z,0.00
2022-10-04T03:25:47.308Z,0.00
2022-10-04T03:26:47.398Z,0.00
2022-10-04T03:27:47.671Z,0.00
2022-10-04T03:28:47.420Z,0.00
2022-10-04T03:29:47.430Z,0.00
2022-10-04T03:30:47.466Z,0.00
2022-10-04T03:31:47.553Z,0.00
2022-10-04T03:32:47.521Z,0.00
2022-10-04T03:33:47.550Z,0.00
2022-10-04T03:34:47.883Z,0.00
2022-10-04T03:35:47.614Z,0.00
2022-10-04T03:36:47.643Z,0.00
2022-10-04T03:37:47.670Z,0.00
2022-10-04T03:38:47.704Z,0.00
2022-10-04T03:39:47.733Z,0.00
2022-10-04T03:40:48.085Z,0.00
2022-10-04T03:41:47.826Z,0.00
2022-10-04T03:42:47.822Z,0.00
2022-10-04T03:43:47.848Z,0.00
2022-10-04T03:44:47.907Z,0.00
2022-10-04T03:45:47.933Z,0.00
2022-10-04T03:46:48.242Z,0.00
2022-10-04T03:47:47.969Z,0.00
2022-10-04T03:48:48.004Z,0.00
2022-10-04T03:49:50.873Z,0.00
2022-10-04T03:50:48.060Z,0.00
2022-10-04T03:51:48.091Z,0.00
2022-10-04T03:53:48.450Z,0.00
2022-10-04T03:54:48.197Z,0.00
2022-10-04T03:55:48.212Z,0.00
2022-10-04T03:56:48.239Z,0.00
2022-10-04T03:57:48.270Z,0.00
2022-10-04T03:58:48.296Z,0.00
2022-10-04T03:59:48.631Z,0.00
2022-10-04T04:00:48.429Z,0.00
2022-10-04T04:01:48.503Z,0.00
2022-10-04T04:02:48.489Z,0.00
2022-10-04T04:03:48.452Z,0.00
2022-10-04T04:04:48.480Z,0.00
2022-10-04T04:05:48.510Z,0.00
2022-10-04T04:06:48.842Z,0.00
2022-10-04T04:07:48.572Z,0.00
2022-10-04T04:08:48.600Z,0.00
2022-10-04T04:09:48.626Z,0.00
2022-10-04T04:10:48.658Z,0.00
2022-10-04T04:11:48.687Z,0.00
2022-10-04T04:12:48.722Z,0.00
2022-10-04T04:13:49.054Z,0.00
2022-10-04T04:14:48.775Z,0.00
2022-10-04T04:15:48.936Z,0.00
2022-10-04T04:16:48.862Z,0.00
2022-10-04T04:17:48.866Z,0.00
2022-10-04T04:18:48.898Z,0.00
2022-10-04T04:19:48.940Z,0.00
2022-10-04T04:21:49.287Z,0.00
2022-10-04T04:22:49.026Z,0.00
2022-10-04T04:23:49.043Z,0.00
2022-10-04T04:24:49.080Z,0.00
2022-10-04T04:25:49.108Z,0.00
2022-10-04T04:26:49.137Z,0.00
2022-10-04T04:27:49.170Z,0.00
2022-10-04T04:28:49.496Z,0.00
2022-10-04T04:29:49.234Z,0.00
2022-10-04T04:30:49.262Z,0.00
2022-10-04T04:31:49.310Z,0.00
2022-10-04T04:32:49.337Z,0.00
2022-10-04T04:33:49.343Z,0.00
2022-10-04T04:34:49.374Z,0.00
2022-10-04T04:35:49.700Z,0.00
2022-10-04T04:36:49.457Z,0.00
2022-10-04T04:37:49.465Z,0.00
2022-10-04T04:38:49.500Z,0.00
2022-10-04T04:39:49.547Z,0.00
2022-10-04T04:40:49.552Z,0.00
2022-10-04T04:41:50.777Z,0.00
2022-10-04T04:42:49.918Z,0.00
2022-10-04T04:43:49.643Z,0.00
2022-10-04T04:44:49.674Z,0.00
2022-10-04T04:46:02.840Z,0.00
2022-10-04T04:46:49.796Z,0.00
2022-10-04T04:47:49.772Z,0.00
2022-10-04T04:48:49.812Z,0.00
2022-10-04T04:49:50.119Z,0.00
2022-10-04T04:50:49.852Z,0.00
2022-10-04T04:51:49.880Z,0.00
2022-10-04T04:52:49.915Z,0.00
2022-10-04T04:53:49.954Z,0.00
2022-10-04T04:54:49.971Z,0.00
2022-10-04T04:56:03.437Z,0.00
2022-10-04T04:56:50.330Z,0.00
2022-10-04T04:57:50.064Z,0.00
2022-10-04T04:58:50.092Z,0.00
2022-10-04T04:59:50.119Z,0.00
2022-10-04T05:00:50.238Z,0.00
2022-10-04T05:01:50.263Z,0.00
2022-10-04T05:02:51.954Z,0.00
2022-10-04T05:03:50.539Z,0.00
2022-10-04T05:04:50.294Z,0.00
2022-10-04T05:05:50.296Z,0.00
2022-10-04T05:06:50.336Z,0.00
2022-10-04T05:07:50.358Z,0.00
2022-10-04T05:08:50.387Z,0.00
2022-10-04T05:09:50.424Z,0.00
2022-10-04T05:10:50.754Z,0.00
2022-10-04T05:11:50.474Z,0.00
2022-10-04T05:12:50.510Z,0.00
2022-10-04T05:13:50.538Z,0.00
2022-10-04T05:14:50.578Z,0.00
2022-10-04T05:15:50.598Z,4.00
2022-10-04T05:16:50.686Z,4.00
2022-10-04T05:17:51.039Z,4.00
2022-10-04T05:18:50.694Z,4.00
2022-10-04T05:19:50.712Z,4.00
2022-10-04T05:20:50.841Z,8.00
2022-10-04T05:21:50.777Z,8.00
2022-10-04T05:22:50.810Z,8.00
2022-10-04T05:23:50.853Z,8.00
2022-10-04T05:24:51.166Z,12.00
2022-10-04T05:25:50.892Z,12.00
2022-10-04T05:26:50.925Z,16.00
2022-10-04T05:27:51.007Z,20.00
2022-10-04T05:28:50.991Z,20.00
2022-10-04T05:29:51.014Z,28.00
2022-10-04T05:30:51.044Z,32.00
2022-10-04T05:31:51.510Z,32.00
2022-10-04T05:32:51.103Z,36.00
2022-10-04T05:33:51.130Z,40.00
2022-10-04T05:35:51.193Z,52.00
2022-10-04T05:36:51.242Z,56.00
2022-10-04T05:37:51.256Z,60.00
2022-10-04T05:38:51.590Z,68.00
2022-10-04T05:39:51.309Z,72.00
2022-10-04T05:40:51.343Z,76.00
2022-10-04T05:41:51.372Z,84.00
2022-10-04T05:42:51.399Z,96.00
2022-10-04T05:43:51.429Z,100.00
2022-10-04T05:44:51.456Z,112.00
2022-10-04T05:45:51.849Z,120.00
2022-10-04T05:46:51.517Z,132.00
2022-10-04T05:47:51.555Z,140.00
2022-10-04T05:48:51.578Z,148.00
2022-10-04T05:49:51.607Z,160.00
2022-10-04T05:50:51.638Z,172.00
2022-10-04T05:51:51.668Z,184.00
2022-10-04T05:52:52.028Z,200.00
2022-10-04T05:53:51.733Z,212.00
2022-10-04T05:54:51.805Z,224.00
2022-10-04T05:55:51.784Z,240.00
2022-10-04T05:56:51.822Z,252.00
2022-10-04T05:57:51.847Z,264.00
2022-10-04T05:58:52.184Z,280.00
2022-10-04T05:59:51.908Z,292.00
2022-10-04T06:00:51.995Z,308.00
2022-10-04T06:01:52.040Z,320.00
2022-10-04T06:02:52.047Z,328.00
2022-10-04T06:03:52.028Z,340.00
2022-10-04T06:04:52.353Z,348.00
2022-10-04T06:05:52.130Z,360.00
2022-10-04T06:06:52.118Z,368.00
2022-10-04T06:07:52.144Z,380.00
2022-10-04T06:08:52.198Z,396.00
2022-10-04T06:09:52.213Z,408.00
2022-10-04T06:10:52.537Z,424.00
2022-10-04T06:11:52.264Z,436.00
2022-10-04T06:12:52.302Z,452.00
2022-10-04T06:13:52.330Z,472.00
2022-10-04T06:14:52.370Z,492.00
2022-10-04T06:15:52.382Z,512.00
2022-10-04T06:16:52.458Z,536.00
2022-10-04T06:17:52.743Z,560.00
2022-10-04T06:18:52.476Z,584.00
2022-10-04T06:19:52.501Z,612.00
2022-10-04T06:20:52.539Z,636.00
2022-10-04T06:21:52.564Z,668.00
2022-10-04T06:22:52.594Z,696.00
2022-10-04T06:23:52.622Z,716.00
2022-10-04T06:24:52.971Z,724.00
2022-10-04T06:25:52.728Z,736.00
2022-10-04T06:26:52.709Z,744.00
2022-10-04T06:27:52.756Z,756.00
2022-10-04T06:28:52.769Z,764.00
2022-10-04T06:29:52.805Z,776.00
2022-10-04T06:30:52.868Z,780.00
2022-10-04T06:31:56.510Z,792.00
2022-10-04T06:32:52.910Z,812.00
2022-10-04T06:33:52.969Z,836.00
2022-10-04T06:34:52.951Z,864.00
2022-10-04T06:35:52.980Z,884.00
2022-10-04T06:36:53.024Z,912.00
2022-10-04T06:37:53.032Z,948.00
2022-10-04T06:38:53.374Z,972.00
2022-10-04T06:39:53.161Z,1004.00
2022-10-04T06:40:53.147Z,1036.00
2022-10-04T06:41:53.155Z,1072.00
2022-10-04T06:42:53.186Z,1088.00
2022-10-04T06:43:53.219Z,1108.00
2022-10-04T06:44:53.257Z,1124.00
2022-10-04T06:45:53.693Z,1132.00
2022-10-04T06:46:53.306Z,1136.00
2022-10-04T06:47:53.342Z,1136.00
2022-10-04T06:48:53.367Z,1148.00
2022-10-04T06:49:53.410Z,1156.00
2022-10-04T06:50:53.423Z,1168.00
2022-10-04T06:51:53.456Z,1180.00
2022-10-04T06:52:53.788Z,1208.00
2022-10-04T06:53:53.516Z,1236.00
2022-10-04T06:54:53.549Z,1272.00
2022-10-04T06:55:53.571Z,1312.00
2022-10-04T06:57:53.671Z,1420.00
2022-10-04T06:58:53.668Z,1468.00
2022-10-04T06:59:54.000Z,1512.00
2022-10-04T07:00:53.811Z,1540.00
2022-10-04T07:01:53.755Z,1564.00
2022-10-04T07:02:53.838Z,1576.00
2022-10-04T07:03:53.864Z,1596.00
2022-10-04T07:05:08.073Z,1620.00
2022-10-04T07:05:53.872Z,1656.00
2022-10-04T07:06:54.214Z,1688.00
2022-10-04T07:07:53.929Z,1732.00
2022-10-04T07:08:53.961Z,1780.00
2022-10-04T07:09:54.001Z,1844.00
2022-10-04T07:10:54.024Z,1916.00
2022-10-04T07:11:54.102Z,1992.00
2022-10-04T07:12:54.084Z,2068.00
2022-10-04T07:13:54.441Z,2120.00
2022-10-04T07:14:54.141Z,2164.00
2022-10-04T07:15:54.252Z,2204.00
2022-10-04T07:16:54.203Z,2204.00
2022-10-04T07:17:54.229Z,2204.00
2022-10-04T07:18:54.266Z,2216.00
2022-10-04T07:19:54.291Z,2220.00
2022-10-04T07:20:54.622Z,2208.00
2022-10-04T07:21:54.352Z,2188.00
2022-10-04T07:22:54.385Z,2176.00
2022-10-04T07:23:54.411Z,2144.00
2022-10-04T07:24:54.438Z,2120.00
2022-10-04T07:25:54.479Z,2096.00
2022-10-04T07:26:54.499Z,2076.00
2022-10-04T07:27:54.843Z,2056.00
2022-10-04T07:28:54.562Z,2028.00
2022-10-04T07:29:54.703Z,1996.00
2022-10-04T07:30:54.721Z,1960.00
2022-10-04T07:31:54.700Z,1924.00
2022-10-04T07:32:54.684Z,1896.00
2022-10-04T07:33:54.713Z,1884.00
2022-10-04T07:34:55.039Z,1892.00
2022-10-04T07:35:54.771Z,1828.00
2022-10-04T07:36:54.797Z,1800.00
2022-10-04T07:37:54.839Z,1804.00
2022-10-04T07:38:54.857Z,1808.00
2022-10-04T07:39:54.886Z,1796.00
2022-10-04T07:40:54.916Z,1776.00
2022-10-04T07:41:55.284Z,1756.00
2022-10-04T07:42:54.979Z,1732.00
2022-10-04T07:43:55.015Z,1736.00
2022-10-04T07:44:55.041Z,1696.00
2022-10-04T07:45:55.144Z,1644.00
2022-10-04T07:46:55.097Z,1604.00
2022-10-04T07:47:55.128Z,1576.00
2022-10-04T07:48:55.462Z,1548.00
2022-10-04T07:49:55.191Z,1528.00
2022-10-04T07:50:55.244Z,1500.00
2022-10-04T07:51:55.253Z,1484.00
2022-10-04T07:52:55.277Z,1456.00
2022-10-04T07:53:55.316Z,1436.00
2022-10-04T07:54:55.645Z,1408.00
2022-10-04T07:55:55.375Z,1380.00
2022-10-04T07:56:55.401Z,1344.00
2022-10-04T07:57:55.433Z,1320.00
2022-10-04T07:58:55.460Z,1308.00
2022-10-04T07:59:55.490Z,1296.00
2022-10-04T08:00:55.823Z,1288.00
2022-10-04T08:01:55.619Z,1288.00
2022-10-04T08:02:55.728Z,1284.00
2022-10-04T08:03:55.611Z,1288.00
2022-10-04T08:04:55.644Z,1296.00
2022-10-04T08:05:55.675Z,1312.00
2022-10-04T08:06:56.000Z,1328.00
2022-10-04T08:07:55.735Z,1348.00
2022-10-04T08:08:55.761Z,1364.00
2022-10-04T08:09:55.795Z,1380.00
2022-10-04T08:10:57.458Z,1388.00
2022-10-04T08:11:55.852Z,1392.00
2022-10-04T08:12:55.881Z,1404.00
2022-10-04T08:13:56.213Z,1448.00
2022-10-04T08:14:55.939Z,1436.00
2022-10-04T08:15:56.024Z,1476.00
2022-10-04T08:16:55.998Z,1464.00
2022-10-04T08:17:56.061Z,1552.00
2022-10-04T08:18:56.067Z,1580.00
2022-10-04T08:19:56.093Z,1584.00
2022-10-04T08:20:56.424Z,1600.00
2022-10-04T08:21:56.151Z,1608.00
2022-10-04T08:22:56.178Z,1612.00
2022-10-04T08:23:56.209Z,1632.00
2022-10-04T08:24:56.240Z,1620.00
2022-10-04T08:25:57.070Z,1636.00
2022-10-04T08:26:56.321Z,1640.00
2022-10-04T08:27:56.745Z,1636.00
2022-10-04T08:28:56.360Z,1640.00
2022-10-04T08:29:56.391Z,1624.00
2022-10-04T08:30:56.500Z,1588.00
2022-10-04T08:31:56.450Z,1500.00
2022-10-04T08:32:56.480Z,1504.00
2022-10-04T08:33:56.531Z,1484.00
2022-10-04T08:34:56.843Z,1528.00
2022-10-04T08:35:56.574Z,1532.00
2022-10-04T08:36:56.600Z,1520.00
2022-10-04T08:37:56.641Z,1532.00
2022-10-04T08:38:56.664Z,1528.00
2022-10-04T08:39:56.704Z,1468.00
2022-10-04T08:40:56.724Z,1484.00
2022-10-04T08:41:57.060Z,1480.00
2022-10-04T08:42:56.785Z,1488.00
2022-10-04T08:43:56.838Z,1496.00
2022-10-04T08:44:56.855Z,1540.00
2022-10-04T08:45:56.930Z,1552.00
2022-10-04T08:46:56.904Z,1572.00
2022-10-04T08:47:56.935Z,1524.00
2022-10-04T08:48:57.270Z,1476.00
2022-10-04T08:49:57.016Z,1480.00
2022-10-04T08:50:57.027Z,1428.00
2022-10-04T08:51:57.061Z,1416.00
2022-10-04T08:52:57.086Z,1508.00
2022-10-04T08:53:57.114Z,1556.00
2022-10-04T08:54:57.146Z,1548.00
2022-10-04T08:55:57.918Z,1532.00
2022-10-04T08:56:57.223Z,1532.00
2022-10-04T08:57:57.243Z,1520.00
2022-10-04T08:58:57.267Z,1512.00
2022-10-04T08:59:57.296Z,1436.00
2022-10-04T09:00:57.325Z,1408.00
2022-10-04T09:01:57.396Z,1432.00
2022-10-04T09:02:57.778Z,1460.00
2022-10-04T09:03:57.422Z,1444.00
2022-10-04T09:04:57.445Z,1412.00
2022-10-04T09:05:57.500Z,1368.00
2022-10-04T09:06:57.511Z,1364.00
2022-10-04T09:07:57.536Z,1304.00
2022-10-04T09:08:57.569Z,1388.00
2022-10-04T09:09:57.904Z,1384.00
2022-10-04T09:10:57.634Z,1440.00
2022-10-04T09:11:57.660Z,1488.00
2022-10-04T09:12:57.689Z,1492.00
2022-10-04T09:13:57.721Z,1492.00
2022-10-04T09:14:57.749Z,1504.00
2022-10-04T09:15:57.807Z,1528.00
2022-10-04T09:16:58.110Z,1528.00
2022-10-04T09:17:57.840Z,1532.00
2022-10-04T09:18:57.874Z,1532.00
2022-10-04T09:20:13.976Z,1532.00
2022-10-04T09:20:57.934Z,1532.00
2022-10-04T09:21:57.997Z,1536.00
2022-10-04T09:23:00.733Z,1540.00
2022-10-04T09:23:58.322Z,1540.00
2022-10-04T09:24:58.056Z,1540.00
2022-10-04T09:25:58.092Z,1544.00
2022-10-04T09:26:58.113Z,1544.00
2022-10-04T09:27:58.160Z,1552.00
2022-10-04T09:29:02.474Z,1560.00
2022-10-04T09:29:58.209Z,1564.00
2022-10-04T09:30:58.587Z,1556.00
2022-10-04T09:31:58.325Z,1580.00
2022-10-04T09:32:58.296Z,1604.00
2022-10-04T09:33:58.337Z,1596.00
2022-10-04T09:34:58.354Z,1608.00
2022-10-04T09:35:58.413Z,1616.00
2022-10-04T09:36:58.416Z,1624.00
2022-10-04T09:37:58.888Z,1636.00
2022-10-04T09:39:25.284Z,1640.00
2022-10-04T09:39:58.510Z,1632.00
2022-10-04T09:40:58.580Z,1612.00
2022-10-04T09:41:58.575Z,1588.00
2022-10-04T09:42:58.598Z,1572.00
2022-10-04T09:43:58.935Z,1564.00
2022-10-04T09:44:58.659Z,1560.00
2022-10-04T09:45:58.730Z,1556.00
2022-10-04T09:46:58.763Z,1556.00
2022-10-04T09:47:58.753Z,1548.00
2022-10-04T09:48:58.784Z,1552.00
2022-10-04T09:49:59.109Z,1556.00
2022-10-04T09:50:58.990Z,1552.00
2022-10-04T09:51:58.872Z,1560.00
2022-10-04T09:52:58.899Z,1556.00
2022-10-04T09:53:58.964Z,1552.00
2022-10-04T09:54:58.963Z,1552.00
2022-10-04T09:55:59.294Z,1552.00
2022-10-04T09:56:59.024Z,1552.00
2022-10-04T09:57:59.057Z,1512.00
2022-10-04T09:58:59.082Z,1556.00
2022-10-04T09:59:59.121Z,1552.00
2022-10-04T10:00:59.145Z,1556.00
2022-10-04T10:01:59.257Z,1556.00
2022-10-04T10:02:59.614Z,1556.00
2022-10-04T10:03:59.242Z,1556.00
2022-10-04T10:04:59.264Z,1560.00
2022-10-04T10:05:59.300Z,1560.00
2022-10-04T10:06:59.339Z,1560.00
2022-10-04T10:07:59.360Z,1556.00
2022-10-04T10:08:59.390Z,1556.00
2022-10-04T10:09:59.737Z,1556.00
2022-10-04T10:10:59.452Z,1560.00
2022-10-04T10:11:59.486Z,1560.00
2022-10-04T10:12:59.506Z,1560.00
2022-10-04T10:13:59.561Z,1560.00
2022-10-04T10:14:59.569Z,1564.00
2022-10-04T10:15:59.736Z,1560.00
2022-10-04T10:16:59.932Z,1568.00
2022-10-04T10:17:59.812Z,1564.00
2022-10-04T10:18:59.688Z,1572.00
2022-10-04T10:19:59.726Z,1560.00
2022-10-04T10:20:59.759Z,1664.00
2022-10-04T10:21:59.785Z,1564.00
2022-10-04T10:22:59.813Z,1564.00
2022-10-04T10:24:00.160Z,1564.00
2022-10-04T10:24:59.870Z,1568.00
2022-10-04T10:25:59.933Z,1568.00
2022-10-04T10:26:59.938Z,1564.00
2022-10-04T10:28:00.019Z,1568.00
2022-10-04T10:29:00.005Z,1568.00
2022-10-04T10:30:00.032Z,1572.00
2022-10-04T10:31:00.430Z,1572.00
2022-10-04T10:32:00.101Z,1572.00
2022-10-04T10:33:00.115Z,1572.00
2022-10-04T10:34:00.149Z,1576.00
2022-10-04T10:35:00.178Z,1580.00
2022-10-04T10:36:00.211Z,1584.00
2022-10-04T10:37:00.247Z,1584.00
2022-10-04T10:38:04.438Z,1592.00
2022-10-04T10:39:00.302Z,1592.00
2022-10-04T10:40:00.332Z,1592.00
2022-10-04T10:41:00.368Z,1596.00
2022-10-04T10:42:00.410Z,1596.00
2022-10-04T10:43:00.426Z,1596.00
2022-10-04T10:44:00.452Z,1600.00
2022-10-04T10:45:00.788Z,1604.00
2022-10-04T10:46:00.514Z,1608.00
2022-10-04T10:47:00.558Z,1612.00
2022-10-04T10:48:00.578Z,1608.00
2022-10-04T10:49:00.610Z,1608.00
2022-10-04T10:50:00.641Z,1600.00
2022-10-04T10:51:00.781Z,1600.00
2022-10-04T10:52:00.997Z,1600.00
2022-10-04T10:53:00.735Z,1596.00
2022-10-04T10:54:00.766Z,1604.00
2022-10-04T10:55:00.795Z,1600.00
2022-10-04T10:56:00.822Z,1604.00
2022-10-04T10:57:00.855Z,1604.00
2022-10-04T10:58:00.907Z,1604.00
2022-10-04T10:59:01.214Z,1592.00
2022-10-04T11:00:00.942Z,1600.00
2022-10-04T11:01:00.976Z,1612.00
2022-10-04T11:02:01.222Z,1612.00
2022-10-04T11:03:12.644Z,1608.00
2022-10-04T11:04:01.111Z,1604.00
2022-10-04T11:05:01.100Z,1588.00
2022-10-04T11:06:01.486Z,1596.00
2022-10-04T11:07:01.161Z,1608.00
2022-10-04T11:08:01.193Z,1616.00
2022-10-04T11:09:01.220Z,1616.00
2022-10-04T11:10:01.252Z,1616.00
2022-10-04T11:11:01.288Z,1612.00
2022-10-04T11:12:01.309Z,1608.00
2022-10-04T11:13:01.645Z,1604.00
2022-10-04T11:14:01.397Z,1608.00
2022-10-04T11:15:01.407Z,1608.00
2022-10-04T11:16:01.455Z,1608.00
2022-10-04T11:17:01.465Z,1612.00
2022-10-04T11:18:01.497Z,1608.00
2022-10-04T11:19:01.531Z,1604.00
2022-10-04T11:20:01.864Z,1600.00
2022-10-04T11:21:01.762Z,1588.00
2022-10-04T11:22:01.784Z,1612.00
2022-10-04T11:23:01.752Z,1612.00
2022-10-04T11:24:01.856Z,1608.00
2022-10-04T11:25:01.833Z,1604.00
2022-10-04T11:26:01.745Z,1608.00
2022-10-04T11:27:02.084Z,1608.00
2022-10-04T11:28:01.872Z,1608.00
2022-10-04T11:29:01.842Z,1620.00
2022-10-04T11:30:01.895Z,1616.00
2022-10-04T11:31:01.969Z,1620.00
2022-10-04T11:32:01.928Z,1620.00
2022-10-04T11:33:02.273Z,1624.00
2022-10-04T11:34:02.000Z,1624.00
2022-10-04T11:35:02.029Z,1624.00
2022-10-04T11:36:02.050Z,1628.00
2022-10-04T11:37:02.085Z,1624.00
2022-10-04T11:38:02.113Z,1624.00
2022-10-04T11:39:02.463Z,1624.00
2022-10-04T11:40:02.191Z,1624.00
2022-10-04T11:41:02.211Z,1628.00
2022-10-04T11:42:02.244Z,1628.00
2022-10-04T11:43:02.274Z,1632.00
2022-10-04T11:44:02.297Z,1636.00
2022-10-04T11:45:02.637Z,1640.00
2022-10-04T11:46:04.465Z,1652.00
2022-10-04T11:47:02.415Z,1656.00
2022-10-04T11:48:02.429Z,1664.00
2022-10-04T11:49:02.455Z,1668.00
2022-10-04T11:50:02.488Z,1676.00
2022-10-04T11:51:02.515Z,1688.00
2022-10-04T11:52:02.943Z,1696.00
2022-10-04T11:53:02.580Z,1696.00
2022-10-04T11:54:02.610Z,1692.00
2022-10-04T11:55:02.649Z,1692.00
2022-10-04T11:56:02.669Z,1700.00
2022-10-04T11:57:02.707Z,1704.00
2022-10-04T11:58:02.742Z,1712.00
2022-10-04T11:59:03.069Z,1728.00
2022-10-04T12:00:02.795Z,1748.00
2022-10-04T12:01:02.830Z,1776.00
2022-10-04T12:02:02.876Z,1800.00
2022-10-04T12:03:02.894Z,1808.00
2022-10-04T12:04:03.137Z,1792.00
2022-10-04T12:05:02.956Z,1764.00
2022-10-04T12:06:03.282Z,1736.00
2022-10-04T12:07:03.013Z,1708.00
2022-10-04T12:08:03.045Z,1636.00
2022-10-04T12:09:03.077Z,1552.00
2022-10-04T12:10:03.111Z,1536.00
2022-10-04T12:11:03.143Z,1480.00
2022-10-04T12:12:03.167Z,1552.00
2022-10-04T12:13:03.500Z,1764.00
2022-10-04T12:14:03.230Z,1792.00
2022-10-04T12:15:03.263Z,1804.00
2022-10-04T12:16:03.342Z,1812.00
2022-10-04T12:17:03.334Z,1812.00
2022-10-04T12:18:03.374Z,1796.00
2022-10-04T12:19:03.409Z,1780.00
2022-10-04T12:20:03.724Z,1768.00
2022-10-04T12:21:03.451Z,1740.00
2022-10-04T12:22:03.502Z,1692.00
2022-10-04T12:23:03.550Z,1716.00
2022-10-04T12:24:03.540Z,1728.00
2022-10-04T12:25:03.573Z,1792.00
2022-10-04T12:26:03.601Z,1792.00
2022-10-04T12:27:03.935Z,1800.00
2022-10-04T12:28:03.722Z,1800.00
2022-10-04T12:29:03.696Z,1808.00
2022-10-04T12:30:03.725Z,1812.00
2022-10-04T12:31:03.758Z,1828.00
2022-10-04T12:32:03.885Z,1844.00
2022-10-04T12:33:03.820Z,1856.00
2022-10-04T12:34:04.198Z,1860.00
2022-10-04T12:35:03.891Z,1864.00
2022-10-04T12:36:03.919Z,1856.00
2022-10-04T12:37:03.952Z,1816.00
2022-10-04T12:38:03.999Z,1792.00
2022-10-04T12:39:04.058Z,1796.00
2022-10-04T12:40:04.044Z,1804.00
2022-10-04T12:41:04.372Z,1812.00
2022-10-04T12:42:04.102Z,1816.00
2022-10-04T12:43:04.135Z,1828.00
2022-10-04T12:44:04.164Z,1836.00
2022-10-04T12:45:04.208Z,1844.00
2022-10-04T12:46:04.294Z,1844.00
2022-10-04T12:47:04.263Z,1836.00
2022-10-04T12:48:04.593Z,1784.00
2022-10-04T12:49:04.365Z,1820.00
2022-10-04T12:50:04.369Z,1884.00